Tiempo atmosférico en la estación meteorológica de Cabo Vilan, A Coruña (50 m.)

Fecha
DESCASC
Temp. máxima en grados centígrados (hora)
DESCASC
Temp. mínima en grados centígrados (hora)
DESCASC
Temp. media en grados centígrados
DESCASC
Racha de viento máxima en m/sg (hora)
DESCASC
Velocidad máxima media en intervalos de 10 minutos(hora)
DESCASC
Precipitaciones diarias en mm
DESCASC
Precipitaciones de 00:00 a 06:00 en mm
DESCASC
Precipitaciones de 06:00 a 12:00 en mm
DESCASC
Precipitaciones de 12:00 a 18:00 en mm
DESCASC
Precipitaciones de 18:00 a 24:00 en mm
DESCASC
22-10-2017 17.9 (14:40) 10.4 (07:10) 14.1 4.17 (08:20) 3.61 (08:30) 0 0 0 0 0
21-10-2017 18.2 (13:40) 13.1 (23:59) 15.7 12.22 (00:30) 9.72 (00:30) 0 0 0 0 0
20-10-2017 19.9 (17:50) 14 (04:40) 16.9 22.78 (19:50) 17.78 (19:40) 7 0 0 0.4 6.6
19-10-2017 16.7 (18:50) 13.3 (00:00) 15 15.56 (17:00) 11.94 (17:00) 5 0 0.1 4.9 0
18-10-2017 18.9 (16:20) 12 (00:00) 15.4 11.39 (03:40) 7.5 (03:40) 20.6 13.9 6.6 0.1 0
17-10-2017 19 (15:40) 12.5 (00:00) 15.8 18.89 (15:30) 12.5 (16:00) 16.7 0.4 0.1 9.4 6.8
16-10-2017 20.7 (00:10) 13.9 (00:00) 17.3 25.56 (02:10) 16.11 (01:50) 0.7 0.7 0 0 0
15-10-2017 28.6 (16:40) 20.4 (00:00) 24.5 24.44 (23:20) 16.11 (23:20) 0 0 0 0 0
14-10-2017 23.6 (17:20) 12 (00:00) 17.8 11.67 (18:20) 8.33 (18:20) 0 0 0 0 0
13-10-2017 18.1 (15:30) 13.7 (00:00) 15.9 11.11 (18:30) 7.5 (19:50) 0.2 0 0.2 0 0
12-10-2017 17.8 (15:20) 12.8 (00:00) 15.3 6.39 (16:30) 4.72 (17:00) 0 0 0 0 0
11-10-2017 20.4 (16:10) 12.9 (00:00) 16.6 8.33 (14:40) 6.39 (14:40) 0 0 0 0 0
10-10-2017 21.3 (16:10) 12.4 (00:00) 16.8 8.89 (06:20) 6.39 (06:20) 0 0 0 0 0
09-10-2017 17.5 (15:00) 13.4 (00:00) 15.4 13.33 (18:20) 11.11 (19:00) 0 0 0 0 0
08-10-2017 18.5 (13:50) 13.2 (00:00) 15.8 12.5 (17:50) 10.56 (21:10) 0 0 0 0 0
07-10-2017 21 (15:30) 14.4 (00:00) 17.7 14.44 (06:50) 9.17 (06:40) 0 0 0 0 0
06-10-2017 18.9 (18:20) 15.7 (00:00) 17.3 20 (16:50) 15.28 (16:50) 0 0 0 0 0
05-10-2017 18.5 (15:20) 15.8 (00:00) 17.2 18.06 (16:50) 14.17 (15:50) 0 0 0 0 0
04-10-2017 19.8 (15:10) 16 (00:00) 17.9 15 (17:00) 11.39 (17:00) 0 0 0 0 0
03-10-2017 19.6 (15:00) 15.5 (00:00) 17.6 11.11 (23:50) 8.33 (23:50) 0.1 0 0.1 0 0
02-10-2017 19.8 (13:10) 16.7 (00:00) 18.3 7.22 (15:10) 6.11 (15:50) 0.2 0 0 0 0.2
01-10-2017 21.3 (16:40) 16.8 (00:00) 19 5 (14:20) 3.89 (14:30) 0.6 0.6 0 0 0
30-09-2017 20.2 (14:30) 13.2 (00:00) 16.7 7.22 (21:40) 5.56 (17:20) 1.1 0 0 0 1.1
29-09-2017 17.4 (02:30) 13.6 (00:00) 15.5 10.83 (00:50) 8.33 (00:50) 3 0.9 0.7 1.4 0
28-09-2017 22 (14:20) 16.8 (00:00) 19.4 13.33 (16:20) 9.72 (14:40) 0.6 0 0 0 0.6
27-09-2017 22.8 (15:40) 16.9 (00:00) 19.8 11.67 (15:40) 8.61 (10:20) 0 0 0 0 0
26-09-2017 20.5 (16:40) 12.2 (00:00) 16.3 8.61 (14:20) 6.67 (14:30) 0.2 0.2 0 0 0
25-09-2017 20.6 (14:10) 14.2 (00:00) 17.4 7.5 (01:20) 6.11 (01:20) 0.1 0.1 0 0 0
24-09-2017 18 (18:30) 15.3 (00:00) 16.7 20 (04:50) 10.28 (11:50) 1.9 0 0.6 0 1.3
23-09-2017 20.7 (14:20) 13.3 (00:00) 17 11.39 (16:20) 8.61 (14:50) 0 0 0 0 0

Gráficas

Temp. máximas Temp. mínimas Temp. medias Precipitaciones Rachas de viento máximas Velocidades máximas media en intervalos de 10 minutos

Datos horarios

Fecha y hora oficial Temperatura (ºC) Velocidad del viento (km/h) Dirección del viento Racha (km/h) Dirección de racha Precipitación (mm) Presión (hPa) Tendencia (hPa) Humedad (%)
2017-10-22 23:00:00 12.5 4 Nordeste 12 Sudeste 0 -- -- 85
2017-10-22 22:00:00 12.6 9 Este 12 Este 0 -- -- 83
2017-10-22 21:00:00 12.7 6 Nordeste 10 Nordeste 0 -- -- 83
2017-10-22 20:00:00 13.6 8 Nordeste 11 Nordeste 0 -- -- 80
2017-10-22 19:00:00 15.2 10 Norte 14 Norte 0 -- -- 70
2017-10-22 18:00:00 16.2 10 Norte 12 Norte 0 -- -- 68
2017-10-22 17:00:00 16.4 9 Norte 10 Norte 0 -- -- 67
2017-10-22 16:00:00 16.7 6 Norte 8 Norte 0 -- -- 62
2017-10-22 15:00:00 17.5 5 Norte 13 Oeste 0 -- -- 59
2017-10-22 14:00:00 16.8 6 Sudoeste 12 Sudoeste 0 -- -- 61
2017-10-22 13:00:00 15.4 7 Sudeste 14 Sudeste 0 -- -- 76
2017-10-22 12:00:00 13.4 9 Sudeste 12 Sudeste 0 -- -- 86
2017-10-22 11:00:00 12.2 10 Sudeste 14 Sudeste 0 -- -- 88
2017-10-22 10:00:00 11.5 6 Sudeste 14 Sudeste 0 -- -- 89
2017-10-22 09:00:00 10.7 12 Sudeste 15 Sudeste 0 -- -- 90
2017-10-22 08:00:00 10.9 10 Sudeste 13 Sudeste 0 -- -- 90
2017-10-22 07:00:00 10.5 12 Sudeste 14 Sudeste 0 -- -- 90
2017-10-22 06:00:00 11.2 4 Sur 10 Sudeste 0 -- -- 90
2017-10-22 05:00:00 11.5 3 Sur 14 Sudeste 0 -- -- 90
2017-10-22 04:00:00 11.3 8 Sudeste 13 Sudeste 0 -- -- 90
2017-10-22 03:00:00 11.2 12 Sudeste 14 Sudeste 0 -- -- 90
2017-10-22 02:00:00 11.9 10 Sudeste 11 Sudeste 0 -- -- 87
2017-10-22 01:00:00 12.3 6 Sudeste 13 Sudeste 0 -- -- 86
2017-10-22 00:00:00 13.1 8 Norte 28 Norte 0 -- -- 81
2017-10-21 23:00:00 13.5 23 Norte 31 Norte 0 -- -- 80
2017-10-21 22:00:00 13.7 14 Norte 23 Norte 0 -- -- 72
2017-10-21 21:00:00 14.4 15 Norte 28 Noroeste 0 -- -- 72
2017-10-21 20:00:00 13.8 14 Noroeste 26 Noroeste 0 -- -- 68
2017-10-21 19:00:00 15.5 17 Noroeste 27 Noroeste 0 -- -- 64
2017-10-21 18:00:00 16.3 17 Noroeste 30 Noroeste 0 -- -- 64
2017-10-21 17:00:00 17.1 20 Noroeste 29 Noroeste 0 -- -- 60
2017-10-21 16:00:00 17.4 19 Noroeste 26 Noroeste 0 -- -- 62
2017-10-21 15:00:00 17 21 Noroeste 31 Oeste 0 -- -- 64
2017-10-21 14:00:00 17.8 21 Oeste 30 Oeste 0 -- -- 64
2017-10-21 13:00:00 17.2 18 Oeste 28 Oeste 0 -- -- 65
2017-10-21 12:00:00 16.5 20 Oeste 29 Oeste 0 -- -- 73
2017-10-21 11:00:00 15.6 21 Oeste 32 Oeste 0 -- -- 76
2017-10-21 10:00:00 14.4 23 Oeste 35 Oeste 0 -- -- 79
2017-10-21 09:00:00 14.1 25 Oeste 37 Oeste 0 -- -- 79
2017-10-21 08:00:00 14.2 25 Oeste 40 Oeste 0 -- -- 79
2017-10-21 07:00:00 13.9 32 Oeste 41 Oeste 0 -- -- 80
2017-10-21 06:00:00 14.2 21 Sudoeste 37 Oeste 0 -- -- 90
2017-10-21 05:00:00 14.6 28 Oeste 36 Oeste 0 -- -- 89
2017-10-21 04:00:00 14.5 28 Sudoeste 36 Oeste 0 -- -- 90
2017-10-21 03:00:00 14.3 23 Sudoeste 37 Oeste 0 -- -- 90
2017-10-21 02:00:00 14.4 30 Oeste 44 Oeste 0 -- -- 92
2017-10-21 01:00:00 14.4 33 Oeste 44 Oeste 0 -- -- 98
2017-10-21 00:00:00 14.9 31 Sudoeste 55 Sudoeste 0 -- -- 99
2017-10-20 23:00:00 16 40 Sudoeste 52 Sudoeste 0 -- -- 99
2017-10-20 22:00:00 14.8 39 Sudoeste 46 Sudoeste 0.4 -- -- 99
2017-10-20 21:00:00 14.5 36 Sudoeste 64 Oeste 1.8 -- -- 99
2017-10-20 20:00:00 15.5 43 Sudoeste 82 Sudoeste 4.4 -- -- 98
2017-10-20 19:00:00 19 54 Sudoeste 78 Sur 0 -- -- 96
2017-10-20 18:00:00 19.3 48 Sur 73 Sur 0 -- -- 94
2017-10-20 17:00:00 18.8 42 Sur 67 Sudoeste 0 -- -- 98
2017-10-20 16:00:00 18.4 41 Sur 61 Sur 0 -- -- 98
2017-10-20 15:00:00 18.7 37 Sur 53 Sudoeste 0 -- -- 99
2017-10-20 14:00:00 18.4 37 Sur 53 Sur 0.1 -- -- 99
2017-10-20 13:00:00 17.4 41 Sur 59 Sur 0.3 -- -- 99
2017-10-20 12:00:00 17.1 36 Sur 54 Sur 0 -- -- 99
2017-10-20 11:00:00 16.3 36 Sur 50 Sur 0 -- -- 99
2017-10-20 10:00:00 15.7 35 Sur 46 Sur 0 -- -- 99
2017-10-20 09:00:00 15.4 28 Sur 39 Sur 0 -- -- 99
2017-10-20 08:00:00 14.8 28 Sur 37 Sur 0 -- -- 99
2017-10-20 07:00:00 14.8 24 Sur 35 Sur 0 -- -- 99
2017-10-20 06:00:00 14.4 22 Sur 27 Sur 0 -- -- 99
2017-10-20 05:00:00 14.1 16 Sur 21 Sur 0 -- -- 99
2017-10-20 04:00:00 14.3 13 Sur 17 Sur 0 -- -- 99
2017-10-20 03:00:00 14.6 9 Sur 14 Sudeste 0 -- -- 99
2017-10-20 02:00:00 14.5 8 Sur 10 Sudeste 0 -- -- 99
2017-10-20 01:00:00 15 5 Sur 9 Sur 0 -- -- 99
2017-10-20 00:00:00 14.8 7 Sudeste 11 Sudeste 0 -- -- 99
2017-10-19 23:00:00 15.1 3 Nordeste 12 Noroeste 0 -- -- 99
2017-10-19 22:00:00 15.5 6 Noroeste 21 Noroeste 0 -- -- 99
2017-10-19 21:00:00 16.1 9 Sudoeste 14 Sudoeste 0 -- -- 99
2017-10-19 20:00:00 16.1 8 Sur 14 Sudoeste 0 -- -- 99
2017-10-19 19:00:00 16.3 10 Sudoeste 18 Sudoeste 0 -- -- 99
2017-10-19 18:00:00 16.6 16 Sudoeste 50 Sudoeste 1.3 -- -- 99
2017-10-19 17:00:00 15.8 43 Sur 56 Sur 1.7 -- -- 99
2017-10-19 16:00:00 15.8 36 Sur 52 Sur 0.7 -- -- 99
2017-10-19 15:00:00 15.9 38 Sur 52 Sur 0.8 -- -- 99
2017-10-19 14:00:00 16 33 Sur 51 Sur 0.4 -- -- 98
2017-10-19 13:00:00 16.3 39 Sur 51 Sur 0 -- -- 98
2017-10-19 12:00:00 16 35 Sur 45 Sur 0 -- -- 99
2017-10-19 11:00:00 14.9 28 Sur 46 Sur 0.1 -- -- 99
2017-10-19 10:00:00 14.5 30 Sur 43 Sur 0 -- -- 98
2017-10-19 09:00:00 14.4 30 Sur 44 Sur 0 -- -- 97
2017-10-19 08:00:00 14.5 31 Sur 89 Sur 0 -- -- 97
2017-10-19 07:00:00 14.4 34 Sur 44 Sur 0 -- -- 97
2017-10-19 06:00:00 14.4 27 Sur 39 Sur 0 -- -- 97
2017-10-19 05:00:00 14.3 27 Sur 39 Sur 0 -- -- 98
2017-10-19 04:00:00 14.3 26 Sur 37 Sur 0 -- -- 98
2017-10-19 03:00:00 13.8 27 Sur 36 Sur 0 -- -- 97
2017-10-19 02:00:00 13.6 23 Sur 30 Sur 0 -- -- 95
2017-10-19 01:00:00 13.5 21 Sur 29 Sur 0 -- -- 94
2017-10-19 00:00:00 13.4 19 Sur 27 Sur 0 -- -- 94
2017-10-18 23:00:00 13.6 20 Sur 31 Sur 0 -- -- 93
2017-10-18 22:00:00 14 20 Sur 29 Sur 0 -- -- 89
2017-10-18 21:00:00 14.7 13 Sur 17 Sur 0 -- -- 84
2017-10-18 20:00:00 14.6 12 Sur 18 Sudoeste 0 -- -- 85
2017-10-18 19:00:00 16.6 15 Sudoeste 18 Sudoeste 0 -- -- 79
2017-10-18 18:00:00 18.2 15 Sudoeste 19 Sudoeste 0 -- -- 76
2017-10-18 17:00:00 18.7 15 Sudoeste 19 Sudoeste 0 -- -- 74
2017-10-18 16:00:00 18.3 17 Sudoeste 21 Sudoeste 0 -- -- 74
2017-10-18 15:00:00 18.1 16 Sudoeste 24 Sudoeste 0 -- -- 76
2017-10-18 14:00:00 18 17 Sudoeste 23 Sudoeste 0 -- -- 83
2017-10-18 13:00:00 17.2 15 Sudoeste 21 Sudoeste 0.1 -- -- 88
2017-10-18 12:00:00 16.2 17 Sudoeste 21 Sudoeste 0 -- -- 94
2017-10-18 11:00:00 15 10 Sur 19 Sur 0 -- -- 98
2017-10-18 10:00:00 13.2 14 Sur 23 Sur 0 -- -- 98
2017-10-18 09:00:00 12.6 19 Sur 25 Sur 0 -- -- 98
2017-10-18 08:00:00 12.2 15 Sur 22 Sudeste 0 -- -- 98
2017-10-18 07:00:00 12.6 14 Sur 21 Sur 6.6 -- -- 98
2017-10-18 06:00:00 12.8 5 Sudeste 30 Sudoeste 7.4 -- -- 98
2017-10-18 05:00:00 12.9 18 Sur 33 Sur 5.3 -- -- 98
2017-10-18 04:00:00 13 21 Sur 41 Sur 1.2 -- -- 98
2017-10-18 03:00:00 13.1 22 Sur 31 Sur 0 -- -- 97
2017-10-18 02:00:00 13.1 20 Sudeste 31 Sur 0 -- -- 97
2017-10-18 01:00:00 12.5 15 Sur 27 Sur 0 -- -- 98
2017-10-18 00:00:00 12.5 20 Sur 31 Sur 0 -- -- 99
2017-10-17 23:00:00 13.4 19 Sur 41 Sur 1 -- -- 99
2017-10-17 22:00:00 13.4 29 Sur 52 Sur 1.5 -- -- 99
2017-10-17 21:00:00 13.7 28 Sur 47 Sur 1.5 -- -- 99
2017-10-17 20:00:00 13.8 37 Sur 53 Sur 1.4 -- -- 99
2017-10-17 19:00:00 14.3 39 Sur 56 Sur 1.4 -- -- 99
2017-10-17 18:00:00 14.3 31 Sur 45 Sur 8.5 -- -- 98
2017-10-17 17:00:00 15 32 Sur 61 Sur 0.9 -- -- 89
2017-10-17 16:00:00 17 45 Sur 68 Sur 0 -- -- 60
2017-10-17 15:00:00 18.1 40 Sur 58 Sur 0 -- -- 72
2017-10-17 14:00:00 17.1 40 Sur 57 Sur 0 -- -- 76
2017-10-17 13:00:00 16.1 35 Sur 48 Sur 0 -- -- 86
2017-10-17 12:00:00 16.2 30 Sur 42 Sur 0 -- -- 93
2017-10-17 11:00:00 14.9 21 Sur 31 Sur 0 -- -- 98
2017-10-17 10:00:00 13.4 21 Sur 30 Sudeste 0 -- -- 98
2017-10-17 09:00:00 12.7 18 Sur 31 Sudeste 0 -- -- 97
2017-10-17 08:00:00 13.2 16 Sur 22 Sur 0 -- -- 97
2017-10-17 07:00:00 13 13 Sur 14 Sur 0.1 -- -- 97
2017-10-17 06:00:00 13.6 8 Sur 11 Sur 0.2 -- -- 95
2017-10-17 05:00:00 13.9 0 Calma 4 Sur 0 -- -- 92
2017-10-17 04:00:00 13.9 0 Calma 7 Nordeste 0.2 -- -- 93
2017-10-17 03:00:00 13.9 0 Calma 18 Nordeste 0 -- -- 94
2017-10-17 02:00:00 14.3 9 Nordeste 16 Nordeste 0 -- -- 93
2017-10-17 01:00:00 14 14 Nordeste 16 Nordeste 0 -- -- 93
2017-10-17 00:00:00 14.5 7 Nordeste 8 Nordeste 0 -- -- 92
2017-10-16 23:00:00 14.3 0 Calma 14 Este 0 -- -- 86
2017-10-16 22:00:00 14.1 10 Este 22 Este 0 -- -- 83
2017-10-16 21:00:00 15.2 8 Nordeste 19 Nordeste 0 -- -- 80
2017-10-16 20:00:00 15.3 9 Nordeste 14 Nordeste 0 -- -- 83
2017-10-16 19:00:00 15.8 10 Nordeste 14 Nordeste 0 -- -- 79
2017-10-16 18:00:00 16.8 8 Nordeste 10 Nordeste 0 -- -- 74
2017-10-16 17:00:00 17.5 6 Norte 8 Norte 0 -- -- 68
2017-10-16 16:00:00 18.1 5 Norte 9 Noroeste 0 -- -- 65
2017-10-16 15:00:00 18.4 5 Noroeste 9 Oeste 0 -- -- 63
2017-10-16 14:00:00 18.9 5 Oeste 12 Oeste 0 -- -- 62
2017-10-16 13:00:00 17.2 4 Sudoeste 7 Sur 0 -- -- 76
2017-10-16 12:00:00 16.3 4 Sudoeste 9 Sudoeste 0 -- -- 88
2017-10-16 11:00:00 15.9 7 Sudoeste 17 Oeste 0 -- -- 93
2017-10-16 10:00:00 15.5 15 Oeste 21 Sudoeste 0 -- -- 96
2017-10-16 09:00:00 14.9 16 Sudoeste 24 Sudoeste 0 -- -- 97
2017-10-16 08:00:00 14.8 18 Sudoeste 30 Sudoeste 0 -- -- 97
2017-10-16 07:00:00 15.2 26 Sudoeste 33 Sudoeste 0 -- -- 97
2017-10-16 06:00:00 15.4 25 Sudoeste 42 Sudoeste 0 -- -- 97
2017-10-16 05:00:00 16.3 35 Sudoeste 51 Sudoeste 0 -- -- 98
2017-10-16 04:00:00 16.6 38 Sudoeste 76 Sudoeste 0.7 -- -- 98
2017-10-16 03:00:00 19.7 51 Sur 92 Sudoeste 0 -- -- 89
2017-10-16 02:00:00 19.9 55 Sur 80 Sur 0 -- -- 89
2017-10-16 01:00:00 20.3 49 Sur 79 Sur 0 -- -- 83
2017-10-16 00:00:00 20.6 53 Sur 88 Sur 0 -- -- 73
2017-10-15 23:00:00 22 57 Sur 79 Sur 0 -- -- 53
2017-10-15 22:00:00 22.8 53 Sur 78 Sur 0 -- -- 45
2017-10-15 21:00:00 23.4 53 Sur 78 Sur 0 -- -- 40
2017-10-15 20:00:00 25.8 54 Sur 79 Sur 0 -- -- 31
2017-10-15 19:00:00 26.9 48 Sur 74 Sur 0 -- -- 30
2017-10-15 18:00:00 26.7 44 Sur 72 Sur 0 -- -- 30
2017-10-15 17:00:00 28.1 46 Sur 73 Sur 0 -- -- 28
2017-10-15 16:00:00 28 42 Sur 66 Sur 0 -- -- 30
2017-10-15 15:00:00 26.9 46 Sur 61 Sur 0 -- -- 34
2017-10-15 14:00:00 26.4 45 Sur 71 Sur 0 -- -- 34
2017-10-15 13:00:00 25.5 53 Sur 73 Sur 0 -- -- 34
2017-10-15 12:00:00 26.2 41 Sur 59 Sur 0 -- -- 35
2017-10-15 11:00:00 24.6 39 Sur 62 Sur 0 -- -- 40
2017-10-15 10:00:00 22.2 37 Sur 61 Sur 0 -- -- 49
2017-10-15 09:00:00 21.7 40 Sur 63 Sur 0 -- -- 48
2017-10-15 08:00:00 22 41 Sur 63 Sur 0 -- -- 47
2017-10-15 07:00:00 22.2 45 Sur 59 Sur 0 -- -- 45
2017-10-15 06:00:00 21.5 37 Sur 53 Sur 0 -- -- 50
2017-10-15 05:00:00 21.5 36 Sur 51 Sur 0 -- -- 54
2017-10-15 04:00:00 21 31 Sur 45 Sur 0 -- -- 56
2017-10-15 03:00:00 21.1 26 Sur 39 Sur 0 -- -- 50
2017-10-15 02:00:00 21.9 22 Sur 38 Sur 0 -- -- 42
2017-10-15 01:00:00 22.2 23 Sur 33 Sur 0 -- -- 44
2017-10-15 00:00:00 20.8 18 Sur 26 Sur 0 -- -- 47
2017-10-14 23:00:00 21.1 19 Sur 31 Sur 0 -- -- 45
2017-10-14 22:00:00 21.2 19 Sur 33 Sur 0 -- -- 47
2017-10-14 21:00:00 19.6 14 Sur 36 Sur 0 -- -- 51
2017-10-14 20:00:00 19.8 14 Sudoeste 35 Sur 0 -- -- 53
2017-10-14 19:00:00 22.3 26 Sur 42 Sur 0 -- -- 50
2017-10-14 18:00:00 23.3 28 Sur 39 Sur 0 -- -- 48
2017-10-14 17:00:00 23.4 26 Sur 38 Sur 0 -- -- 43
2017-10-14 16:00:00 21.4 17 Sudoeste 24 Sudoeste 0 -- -- 57
2017-10-14 15:00:00 19.9 14 Sudoeste 21 Sur 0 -- -- 65
2017-10-14 14:00:00 18.2 13 Sudoeste 17 Sudoeste 0 -- -- 79
2017-10-14 13:00:00 17.2 13 Sudoeste 17 Sudoeste 0 -- -- 85
2017-10-14 12:00:00 16.6 7 Sudoeste 11 Sudoeste 0 -- -- 90
2017-10-14 11:00:00 15 4 Sudoeste 13 Sudoeste 0 -- -- 92
2017-10-14 10:00:00 13.7 12 Sudoeste 16 Sur 0 -- -- 89
2017-10-14 09:00:00 12.9 10 Sudoeste 12 Sudoeste 0 -- -- 87
2017-10-14 08:00:00 13.4 5 Sudoeste 13 Sur 0 -- -- 88
2017-10-14 07:00:00 12.2 6 Este 12 Este 0 -- -- 97
2017-10-14 06:00:00 13.4 10 Este 18 Este 0 -- -- 97
2017-10-14 05:00:00 13.8 9 Nordeste 14 Nordeste 0 -- -- 97
2017-10-14 04:00:00 13.4 7 Nordeste 16 Nordeste 0 -- -- 97
2017-10-14 03:00:00 13.9 13 Nordeste 18 Nordeste 0 -- -- 97
2017-10-14 02:00:00 14.7 13 Nordeste 22 Nordeste 0 -- -- 97
2017-10-14 01:00:00 15.2 14 Nordeste 39 Nordeste 0 -- -- 96
2017-10-14 00:00:00 15.5 21 Nordeste 34 Nordeste 0 -- -- 97
2017-10-13 23:00:00 15.7 20 Nordeste 33 Nordeste 0 -- -- 97
2017-10-13 22:00:00 15.7 19 Nordeste 29 Nordeste 0 -- -- 96
2017-10-13 21:00:00 15.6 17 Nordeste 29 Nordeste 0 -- -- 96
2017-10-13 20:00:00 15.9 27 Nordeste 31 Nordeste 0 -- -- 95
2017-10-13 19:00:00 16.7 25 Nordeste 62 Nordeste 0 -- -- 90
2017-10-13 18:00:00 17.4 25 Nordeste 28 Nordeste 0 -- -- 87
2017-10-13 17:00:00 17.9 22 Nordeste 26 Nordeste 0 -- -- 86
2017-10-13 16:00:00 17.7 18 Nordeste 21 Nordeste 0 -- -- 87
2017-10-13 15:00:00 17.8 16 Nordeste 20 Nordeste 0 -- -- 89
2017-10-13 14:00:00 17.6 17 Nordeste 22 Nordeste 0 -- -- 98
2017-10-13 13:00:00 16.9 15 Nordeste 18 Nordeste 0 -- -- 99
2017-10-13 12:00:00 15.9 7 Nordeste 10 Nordeste 0 -- -- 99
2017-10-13 11:00:00 15.7 6 Nordeste 9 Nordeste 0 -- -- 99
2017-10-13 10:00:00 14.9 6 Nordeste 12 Nordeste 0 -- -- 99
2017-10-13 09:00:00 14.6 8 Nordeste 13 Nordeste 0 -- -- 99
2017-10-13 08:00:00 14.2 3 Nordeste 7 Nordeste 0.1 -- -- 99
2017-10-13 07:00:00 14.1 5 Nordeste 7 Nordeste 0.1 -- -- 99
2017-10-13 06:00:00 14.1 5 Nordeste 12 Este 0 -- -- 99
2017-10-13 05:00:00 14.5 5 Nordeste 11 Nordeste 0 -- -- 99
2017-10-13 04:00:00 14.7 7 Nordeste 9 Nordeste 0 -- -- 99
2017-10-13 03:00:00 15.1 7 Nordeste 9 Nordeste 0 -- -- 99
2017-10-13 02:00:00 14.9 6 Nordeste 10 Nordeste 0 -- -- 99
2017-10-13 01:00:00 14.5 7 Nordeste 10 Nordeste 0 -- -- 99
2017-10-13 00:00:00 15.1 7 Nordeste 12 Nordeste 0 -- -- 99
2017-10-12 23:00:00 15 5 Nordeste 8 Nordeste 0 -- -- 98
2017-10-12 22:00:00 14.8 7 Nordeste 15 Nordeste 0 -- -- 98
2017-10-12 21:00:00 14.8 9 Nordeste 14 Nordeste 0 -- -- 98
2017-10-12 20:00:00 15.2 9 Nordeste 18 Nordeste 0 -- -- 97
2017-10-12 19:00:00 15.4 17 Nordeste 20 Nordeste 0 -- -- 95
2017-10-12 18:00:00 16.3 16 Nordeste 22 Nordeste 0 -- -- 92
2017-10-12 17:00:00 15.8 17 Nordeste 23 Nordeste 0 -- -- 88
2017-10-12 16:00:00 16.6 15 Nordeste 22 Nordeste 0 -- -- 84
2017-10-12 15:00:00 17.1 16 Nordeste 21 Nordeste 0 -- -- 83
2017-10-12 14:00:00 16.6 13 Nordeste 19 Nordeste 0 -- -- 84
2017-10-12 13:00:00 16.2 15 Norte 18 Norte 0 -- -- 83
2017-10-12 12:00:00 16.3 7 Nordeste 16 Nordeste 0 -- -- 83
2017-10-12 11:00:00 15.8 10 Nordeste 18 Nordeste 0 -- -- 84
2017-10-12 10:00:00 14.7 8 Nordeste 12 Nordeste 0 -- -- 89
2017-10-12 09:00:00 12.8 10 Este 14 Este 0 -- -- 89
2017-10-12 08:00:00 13.3 5 Nordeste 8 Nordeste 0 -- -- 90
2017-10-12 07:00:00 13.4 6 Este 15 Este 0 -- -- 93
2017-10-12 06:00:00 13.3 11 Este 15 Este 0 -- -- 96
2017-10-12 05:00:00 13.3 12 Este 14 Sudeste 0 -- -- 98
2017-10-12 04:00:00 13.7 13 Este 15 Este 0 -- -- 98
2017-10-12 03:00:00 13.8 8 Este 13 Este 0 -- -- 98
2017-10-12 02:00:00 13.7 11 Sudeste 14 Sudeste 0 -- -- 98
2017-10-12 01:00:00 14.1 10 Sudeste 14 Sudeste 0 -- -- 98
2017-10-12 00:00:00 14.7 10 Sudeste 13 Sudeste 0 -- -- 98
2017-10-11 23:00:00 15.4 7 Sudeste 10 Sudeste 0 -- -- 97
2017-10-11 22:00:00 15.9 6 Sur 9 Sudoeste 0 -- -- 97
2017-10-11 21:00:00 15.7 8 Sudoeste 12 Sudoeste 0 -- -- 95
2017-10-11 20:00:00 16.5 9 Sur 14 Sudoeste 0 -- -- 89
2017-10-11 19:00:00 18.2 11 Sur 19 Sudoeste 0 -- -- 83
2017-10-11 18:00:00 19.4 15 Sudoeste 22 Sudoeste 0 -- -- 76
2017-10-11 17:00:00 19.8 17 Sudoeste 23 Sudoeste 0 -- -- 73
2017-10-11 16:00:00 20.2 19 Sudoeste 24 Sudoeste 0 -- -- 73
2017-10-11 15:00:00 19.5 19 Sudoeste 30 Sudoeste 0 -- -- 73
2017-10-11 14:00:00 19.6 21 Sudoeste 27 Sudoeste 0 -- -- 74
2017-10-11 13:00:00 18.9 19 Sudoeste 24 Sudoeste 0 -- -- 76
2017-10-11 12:00:00 18.7 15 Sudoeste 22 Sur 0 -- -- 80
2017-10-11 11:00:00 17 16 Sur 23 Sur 0 -- -- 89
2017-10-11 10:00:00 15.3 16 Sur 20 Sur 0 -- -- 94
2017-10-11 09:00:00 14.3 17 Sur 19 Sur 0 -- -- 97
2017-10-11 08:00:00 14.1 15 Sur 18 Sur 0 -- -- 97
2017-10-11 07:00:00 14.2 13 Sur 16 Sur 0 -- -- 97
2017-10-11 06:00:00 14.3 10 Sur 12 Sur 0 -- -- 97
2017-10-11 05:00:00 14.2 6 Sur 9 Sudeste 0 -- -- 97
2017-10-11 04:00:00 15.1 3 Sudoeste 6 Sudoeste 0 -- -- 97
2017-10-11 03:00:00 15 4 Sur 10 Sudoeste 0 -- -- 97
2017-10-11 02:00:00 14.3 7 Sudoeste 12 Sur 0 -- -- 97
2017-10-11 01:00:00 13.6 10 Sur 14 Sur 0 -- -- 96
2017-10-11 00:00:00 12.9 12 Sudoeste 14 Sur 0 -- -- 90
2017-10-10 23:00:00 13.4 10 Sur 15 Sur 0 -- -- 84
2017-10-10 22:00:00 14.7 11 Sur 13 Sur 0 -- -- 70
2017-10-10 21:00:00 15.8 5 Sudoeste 6 Sudoeste 0 -- -- 61
2017-10-10 20:00:00 17.4 2 Sudeste 6 Sudoeste 0 -- -- 55
2017-10-10 19:00:00 19.6 3 Sudoeste 13 Oeste 0 -- -- 50
2017-10-10 18:00:00 20.8 7 Oeste 13 Sudoeste 0 -- -- 45
2017-10-10 17:00:00 18.6 2 Noroeste 12 Sudoeste 0 -- -- 58
2017-10-10 16:00:00 21.2 7 Sudoeste 15 Oeste 0 -- -- 50
2017-10-10 15:00:00 17.8 5 Nordeste 16 Nordeste 0 -- -- 68
2017-10-10 14:00:00 16.5 12 Nordeste 22 Nordeste 0 -- -- 78
2017-10-10 13:00:00 15.9 10 Nordeste 17 Nordeste 0 -- -- 80
2017-10-10 12:00:00 15.3 15 Nordeste 27 Nordeste 0 -- -- 84
2017-10-10 11:00:00 15 16 Nordeste 19 Nordeste 0 -- -- 84
2017-10-10 10:00:00 14.1 13 Nordeste 19 Nordeste 0 -- -- 93
2017-10-10 09:00:00 12.6 14 Este 23 Nordeste 0 -- -- 98
2017-10-10 08:00:00 12.7 17 Nordeste 27 Nordeste 0 -- -- 99
2017-10-10 07:00:00 12.7 15 Nordeste 32 Nordeste 0 -- -- 99
2017-10-10 06:00:00 12.7 20 Nordeste 26 Nordeste 0 -- -- 99
2017-10-10 05:00:00 12.9 9 Nordeste 23 Nordeste 0 -- -- 99
2017-10-10 04:00:00 13.1 19 Nordeste 24 Nordeste 0 -- -- 99
2017-10-10 03:00:00 13.4 18 Nordeste 26 Nordeste 0 -- -- 99
2017-10-10 02:00:00 13.3 17 Nordeste 25 Nordeste 0 -- -- 99
2017-10-10 01:00:00 13.4 11 Nordeste 16 Nordeste 0 -- -- 97
2017-10-10 00:00:00 13.4 8 Nordeste 19 Este 0 -- -- 96
2017-10-09 23:00:00 14.3 8 Este 30 Nordeste 0 -- -- 94
2017-10-09 22:00:00 15.2 27 Nordeste 41 Nordeste 0 -- -- 94
2017-10-09 21:00:00 15.4 27 Nordeste 46 Nordeste 0 -- -- 95
2017-10-09 20:00:00 15.4 33 Nordeste 48 Nordeste 0 -- -- 92
2017-10-09 19:00:00 16 40 Nordeste 48 Nordeste 0 -- -- 88
2017-10-09 18:00:00 16.4 36 Nordeste 45 Nordeste 0 -- -- 86
2017-10-09 17:00:00 17.1 34 Nordeste 44 Nordeste 0 -- -- 82
2017-10-09 16:00:00 17.1 37 Nordeste 42 Nordeste 0 -- -- 82
2017-10-09 15:00:00 17.5 23 Nordeste 32 Nordeste 0 -- -- 74
2017-10-09 14:00:00 17 22 Nordeste 31 Nordeste 0 -- -- 73
2017-10-09 13:00:00 16.9 21 Nordeste 27 Nordeste 0 -- -- 66
2017-10-09 12:00:00 16.3 23 Nordeste 30 Nordeste 0 -- -- 65
2017-10-09 11:00:00 15.4 24 Nordeste 38 Nordeste 0 -- -- 67
2017-10-09 10:00:00 14.8 28 Nordeste 40 Norte 0 -- -- 67
2017-10-09 09:00:00 13.9 27 Nordeste 38 Nordeste 0 -- -- 67
2017-10-09 08:00:00 14.2 28 Nordeste 37 Nordeste 0 -- -- 67
2017-10-09 07:00:00 14.4 23 Nordeste 32 Nordeste 0 -- -- 67
2017-10-09 06:00:00 14.4 21 Nordeste 37 Nordeste 0 -- -- 70
2017-10-09 05:00:00 14.4 20 Nordeste 31 Nordeste 0 -- -- 72
2017-10-09 04:00:00 14.8 22 Nordeste 36 Nordeste 0 -- -- 68
2017-10-09 03:00:00 14.5 28 Nordeste 34 Nordeste 0 -- -- 72
2017-10-09 02:00:00 14.7 22 Nordeste 33 Nordeste 0 -- -- 72
2017-10-09 01:00:00 14.6 29 Nordeste 36 Nordeste 0 -- -- 81
2017-10-09 00:00:00 14.8 27 Nordeste 35 Nordeste 0 -- -- 86
2017-10-08 23:00:00 14.6 31 Nordeste 36 Nordeste 0 -- -- 92
2017-10-08 22:00:00 14.8 30 Nordeste 42 Nordeste 0 -- -- 90
2017-10-08 21:00:00 15.2 37 Nordeste 44 Nordeste 0 -- -- 89
2017-10-08 20:00:00 15.5 37 Nordeste 44 Nordeste 0 -- -- 89
2017-10-08 19:00:00 16.4 30 Nordeste 40 Nordeste 0 -- -- 81
2017-10-08 18:00:00 16.8 37 Nordeste 45 Nordeste 0 -- -- 83
2017-10-08 17:00:00 17.6 33 Nordeste 42 Nordeste 0 -- -- 76
2017-10-08 16:00:00 18 35 Nordeste 42 Nordeste 0 -- -- 68
2017-10-08 15:00:00 17.7 35 Nordeste 40 Nordeste 0 -- -- 72
2017-10-08 14:00:00 18.4 27 Nordeste 39 Nordeste 0 -- -- 58
2017-10-08 13:00:00 16.9 32 Nordeste 38 Nordeste 0 -- -- 60
2017-10-08 12:00:00 17 26 Nordeste 33 Nordeste 0 -- -- 55
2017-10-08 11:00:00 16.2 27 Nordeste 32 Nordeste 0 -- -- 54
2017-10-08 10:00:00 15.6 27 Nordeste 33 Nordeste 0 -- -- 54
2017-10-08 09:00:00 14.8 26 Nordeste 39 Nordeste 0 -- -- 57
2017-10-08 08:00:00 14.1 28 Nordeste 34 Nordeste 0 -- -- 64
2017-10-08 07:00:00 14.9 22 Nordeste 29 Norte 0 -- -- 55
2017-10-08 06:00:00 14 18 Nordeste 28 Nordeste 0 -- -- 64
2017-10-08 05:00:00 14.6 20 Nordeste 33 Nordeste 0 -- -- 59
2017-10-08 04:00:00 14.3 16 Nordeste 32 Nordeste 0 -- -- 72
2017-10-08 03:00:00 15.4 16 Nordeste 25 Nordeste 0 -- -- 68
2017-10-08 02:00:00 14.4 23 Nordeste 33 Nordeste 0 -- -- 84
2017-10-08 01:00:00 14.7 22 Nordeste 31 Nordeste 0 -- -- 79
2017-10-08 00:00:00 14.7 16 Nordeste 28 Nordeste 0 -- -- 85
2017-10-07 23:00:00 14.6 9 Nordeste 23 Norte 0 -- -- 79
2017-10-07 22:00:00 15.3 14 Nordeste 21 Norte 0 -- -- 79
2017-10-07 21:00:00 15.8 9 Nordeste 20 Nordeste 0 -- -- 77
2017-10-07 20:00:00 16.4 11 Nordeste 30 Nordeste 0 -- -- 76
2017-10-07 19:00:00 16.8 20 Nordeste 26 Nordeste 0 -- -- 73
2017-10-07 18:00:00 18.7 16 Nordeste 33 Nordeste 0 -- -- 62
2017-10-07 17:00:00 19.1 22 Nordeste 33 Nordeste 0 -- -- 62
2017-10-07 16:00:00 19.2 23 Nordeste 33 Nordeste 0 -- -- 56
2017-10-07 15:00:00 19.6 22 Nordeste 32 Nordeste 0 -- -- 50
2017-10-07 14:00:00 18.4 23 Nordeste 35 Nordeste 0 -- -- 57
2017-10-07 13:00:00 18 26 Nordeste 31 Nordeste 0 -- -- 61
2017-10-07 12:00:00 18 26 Nordeste 30 Nordeste 0 -- -- 56
2017-10-07 11:00:00 17.6 15 Nordeste 27 Nordeste 0 -- -- 54
2017-10-07 10:00:00 16.1 22 Nordeste 35 Nordeste 0 -- -- 60
2017-10-07 09:00:00 15 26 Nordeste 35 Nordeste 0 -- -- 65
2017-10-07 08:00:00 14.7 23 Nordeste 39 Nordeste 0 -- -- 67
2017-10-07 07:00:00 15.8 29 Nordeste 52 Nordeste 0 -- -- 64
2017-10-07 06:00:00 15.2 26 Nordeste 40 Nordeste 0 -- -- 74
2017-10-07 05:00:00 15.4 23 Nordeste 42 Nordeste 0 -- -- 76
2017-10-07 04:00:00 15.7 30 Nordeste 42 Nordeste 0 -- -- 77
2017-10-07 03:00:00 16 23 Nordeste 42 Nordeste 0 -- -- 79
2017-10-07 02:00:00 15.9 24 Nordeste 42 Nordeste 0 -- -- 86
2017-10-07 01:00:00 15.7 26 Nordeste 43 Este 0 -- -- 90
2017-10-07 00:00:00 15.7 24 Nordeste 41 Nordeste 0 -- -- 91
2017-10-06 23:00:00 16.4 28 Nordeste 50 Nordeste 0 -- -- 90
2017-10-06 22:00:00 16.5 30 Nordeste 50 Nordeste 0 -- -- 90
2017-10-06 21:00:00 17.1 22 Nordeste 49 Nordeste 0 -- -- 90
2017-10-06 20:00:00 16.8 37 Nordeste 50 Nordeste 0 -- -- 89
2017-10-06 19:00:00 17.8 25 Nordeste 45 Nordeste 0 -- -- 83
2017-10-06 18:00:00 18.6 23 Nordeste 65 Nordeste 0 -- -- 80
2017-10-06 17:00:00 18 53 Nordeste 72 Nordeste 0 -- -- 80
2017-10-06 16:00:00 18 50 Nordeste 63 Nordeste 0 -- -- 80
2017-10-06 15:00:00 18.1 49 Nordeste 57 Nordeste 0 -- -- 79
2017-10-06 14:00:00 18.2 45 Nordeste 57 Nordeste 0 -- -- 81
2017-10-06 13:00:00 17.7 45 Nordeste 53 Nordeste 0 -- -- 83
2017-10-06 12:00:00 17.6 36 Nordeste 44 Nordeste 0 -- -- 83
2017-10-06 11:00:00 17.4 33 Nordeste 53 Nordeste 0 -- -- 87
2017-10-06 10:00:00 16.6 32 Nordeste 62 Nordeste 0 -- -- 90
2017-10-06 09:00:00 15.9 31 Nordeste 65 Nordeste 0 -- -- 93
2017-10-06 08:00:00 15.7 30 Nordeste 50 Nordeste 0 -- -- 94
2017-10-06 07:00:00 15.8 31 Nordeste 49 Nordeste 0 -- -- 94
2017-10-06 06:00:00 15.9 28 Nordeste 51 Nordeste 0 -- -- 94
2017-10-06 05:00:00 15.9 34 Nordeste 52 Nordeste 0 -- -- 94
2017-10-06 04:00:00 16.1 33 Nordeste 53 Nordeste 0 -- -- 94
2017-10-06 03:00:00 16 30 Nordeste 49 Nordeste 0 -- -- 95
2017-10-06 02:00:00 16.2 31 Nordeste 51 Nordeste 0 -- -- 94
2017-10-06 01:00:00 16.3 33 Nordeste 54 Nordeste 0 -- -- 94
2017-10-06 00:00:00 16.3 35 Nordeste 59 Nordeste 0 -- -- 94
2017-10-05 23:00:00 16.5 34 Nordeste 50 Nordeste 0 -- -- 94
2017-10-05 22:00:00 16.5 32 Nordeste 49 Nordeste 0 -- -- 94
2017-10-05 21:00:00 16.5 34 Nordeste 51 Nordeste 0 -- -- 94
2017-10-05 20:00:00 16.8 30 Nordeste 51 Nordeste 0 -- -- 92
2017-10-05 19:00:00 17.2 37 Nordeste 55 Nordeste 0 -- -- 88
2017-10-05 18:00:00 17.6 39 Nordeste 63 Nordeste 0 -- -- 89
2017-10-05 17:00:00 17.7 42 Nordeste 65 Nordeste 0 -- -- 89
2017-10-05 16:00:00 17.9 48 Nordeste 60 Nordeste 0 -- -- 89
2017-10-05 15:00:00 18.2 47 Nordeste 60 Nordeste 0 -- -- 90
2017-10-05 14:00:00 18.1 45 Nordeste 62 Nordeste 0 -- -- 92
2017-10-05 13:00:00 17.6 34 Nordeste 40 Nordeste 0 -- -- 97
2017-10-05 12:00:00 17.4 24 Nordeste 32 Nordeste 0 -- -- 98
2017-10-05 11:00:00 17.2 24 Nordeste 42 Nordeste 0 -- -- 98
2017-10-05 10:00:00 16.9 31 Nordeste 47 Nordeste 0 -- -- 98
2017-10-05 09:00:00 16.8 31 Nordeste 46 Nordeste 0 -- -- 98
2017-10-05 08:00:00 16.8 32 Nordeste 49 Nordeste 0 -- -- 98
2017-10-05 07:00:00 16.8 30 Nordeste 53 Nordeste 0 -- -- 99
2017-10-05 06:00:00 16.9 39 Nordeste 47 Nordeste 0 -- -- 99
2017-10-05 05:00:00 16.8 27 Nordeste 38 Nordeste 0 -- -- 99
2017-10-05 04:00:00 16 18 Nordeste 21 Nordeste 0 -- -- 99
2017-10-05 03:00:00 16.1 15 Nordeste 22 Nordeste 0 -- -- 98
2017-10-05 02:00:00 16.2 17 Nordeste 23 Nordeste 0 -- -- 98
2017-10-05 01:00:00 16.3 14 Nordeste 22 Nordeste 0 -- -- 98
2017-10-05 00:00:00 16.3 18 Nordeste 27 Nordeste 0 -- -- 98
2017-10-04 23:00:00 16.9 22 Nordeste 25 Nordeste 0 -- -- 98
2017-10-04 22:00:00 17.1 20 Nordeste 28 Nordeste 0 -- -- 97
2017-10-04 21:00:00 17.5 20 Nordeste 28 Nordeste 0 -- -- 97
2017-10-04 20:00:00 17.7 24 Nordeste 49 Nordeste 0 -- -- 97
2017-10-04 19:00:00 18.1 37 Nordeste 48 Nordeste 0 -- -- 95
2017-10-04 18:00:00 18.5 35 Nordeste 50 Nordeste 0 -- -- 92
2017-10-04 17:00:00 19 41 Nordeste 54 Nordeste 0 -- -- 92
2017-10-04 16:00:00 19 29 Nordeste 34 Nordeste 0 -- -- 88
2017-10-04 15:00:00 19.7 28 Nordeste 36 Nordeste 0 -- -- 88
2017-10-04 14:00:00 19 29 Nordeste 40 Nordeste 0 -- -- 94
2017-10-04 13:00:00 18.7 33 Nordeste 41 Nordeste 0 -- -- 94
2017-10-04 12:00:00 18.3 27 Nordeste 32 Nordeste 0 -- -- 96
2017-10-04 11:00:00 17.3 18 Nordeste 31 Nordeste 0 -- -- 98
2017-10-04 10:00:00 17.3 21 Nordeste 34 Nordeste 0 -- -- 98
2017-10-04 09:00:00 16.8 24 Nordeste 43 Nordeste 0 -- -- 98
2017-10-04 08:00:00 16.2 21 Nordeste 35 Nordeste 0 -- -- 98
2017-10-04 07:00:00 16.7 20 Nordeste 30 Nordeste 0 -- -- 98
2017-10-04 06:00:00 16.8 24 Nordeste 41 Nordeste 0 -- -- 98
2017-10-04 05:00:00 17.1 26 Nordeste 39 Nordeste 0 -- -- 98
2017-10-04 04:00:00 16.5 12 Nordeste 25 Nordeste 0 -- -- 98
2017-10-04 03:00:00 16.7 20 Nordeste 33 Nordeste 0 -- -- 98
2017-10-04 02:00:00 16.7 17 Nordeste 25 Nordeste 0 -- -- 98
2017-10-04 01:00:00 17.3 23 Nordeste 40 Nordeste 0 -- -- 98
2017-10-04 00:00:00 17.5 29 Nordeste 40 Nordeste 0 -- -- 97
2017-10-03 23:00:00 17.3 23 Nordeste 33 Nordeste 0 -- -- 97
2017-10-03 22:00:00 17.3 26 Nordeste 35 Nordeste 0 -- -- 97
2017-10-03 21:00:00 17 23 Nordeste 29 Nordeste 0 -- -- 97
2017-10-03 20:00:00 17.3 25 Nordeste 28 Nordeste 0 -- -- 95
2017-10-03 19:00:00 18.1 22 Nordeste 26 Nordeste 0 -- -- 91
2017-10-03 18:00:00 19 18 Nordeste 25 Nordeste 0 -- -- 88
2017-10-03 17:00:00 19.1 21 Norte 25 Norte 0 -- -- 88
2017-10-03 16:00:00 19.4 22 Nordeste 27 Norte 0 -- -- 88
2017-10-03 15:00:00 19.3 24 Nordeste 28 Nordeste 0 -- -- 87
2017-10-03 14:00:00 19.2 18 Nordeste 21 Nordeste 0 -- -- 92
2017-10-03 13:00:00 19.1 14 Nordeste 21 Nordeste 0 -- -- 97
2017-10-03 12:00:00 18.1 17 Nordeste 20 Nordeste 0 -- -- 98
2017-10-03 11:00:00 17.8 10 Nordeste 22 Nordeste 0 -- -- 99
2017-10-03 10:00:00 16.3 11 Nordeste 18 Nordeste 0 -- -- 99
2017-10-03 09:00:00 15.6 13 Nordeste 18 Nordeste 0 -- -- 99
2017-10-03 08:00:00 16 12 Nordeste 21 Nordeste 0.1 -- -- 99
2017-10-03 07:00:00 16.1 12 Nordeste 17 Nordeste 0 -- -- 99
2017-10-03 06:00:00 16.1 10 Nordeste 17 Nordeste 0 -- -- 99
2017-10-03 05:00:00 16 10 Nordeste 14 Nordeste 0 -- -- 99
2017-10-03 04:00:00 16.2 12 Nordeste 15 Nordeste 0 -- -- 99
2017-10-03 03:00:00 16.4 10 Nordeste 19 Nordeste 0 -- -- 99
2017-10-03 02:00:00 16.8 16 Nordeste 27 Nordeste 0 -- -- 99
2017-10-03 01:00:00 16.8 14 Nordeste 24 Nordeste 0 -- -- 99
2017-10-03 00:00:00 17 14 Nordeste 21 Norte 0 -- -- 99
2017-10-02 23:00:00 17 18 Nordeste 22 Nordeste 0.1 -- -- 99
2017-10-02 22:00:00 17.1 16 Nordeste 22 Nordeste 0 -- -- 99
2017-10-02 21:00:00 16.9 16 Nordeste 22 Nordeste 0.1 -- -- 99
2017-10-02 20:00:00 17.2 18 Nordeste 22 Nordeste 0 -- -- 99
2017-10-02 19:00:00 17.3 17 Nordeste 23 Nordeste 0 -- -- 98
2017-10-02 18:00:00 17.8 18 Norte 22 Norte 0 -- -- 98
2017-10-02 17:00:00 18.3 19 Norte 23 Norte 0 -- -- 98
2017-10-02 16:00:00 18.6 19 Nordeste 26 Nordeste 0 -- -- 98
2017-10-02 15:00:00 18.5 20 Nordeste 25 Nordeste 0 -- -- 98
2017-10-02 14:00:00 18.9 13 Norte 18 Norte 0 -- -- 97
2017-10-02 13:00:00 19.5 17 Nordeste 22 Nordeste 0 -- -- 98
2017-10-02 12:00:00 18.4 20 Nordeste 24 Nordeste 0 -- -- 98
2017-10-02 11:00:00 18.4 14 Nordeste 18 Nordeste 0 -- -- 98
2017-10-02 10:00:00 17.9 14 Nordeste 21 Nordeste 0 -- -- 98
2017-10-02 09:00:00 17 7 Nordeste 12 Este 0 -- -- 98
2017-10-02 08:00:00 17.2 7 Nordeste 14 Nordeste 0 -- -- 98
2017-10-02 07:00:00 17.5 9 Nordeste 13 Nordeste 0 -- -- 98
2017-10-02 06:00:00 17.2 8 Nordeste 9 Nordeste 0 -- -- 98
2017-10-02 05:00:00 17.1 5 Este 12 Este 0 -- -- 97
2017-10-02 04:00:00 17.2 6 Nordeste 10 Nordeste 0 -- -- 97
2017-10-02 03:00:00 17.2 8 Nordeste 17 Norte 0 -- -- 96
2017-10-02 02:00:00 17.3 7 Norte 14 Norte 0 -- -- 96
2017-10-02 01:00:00 17.5 5 Nordeste 11 Nordeste 0 -- -- 96
2017-10-02 00:00:00 17.5 5 Nordeste 9 Norte 0 -- -- 96
2017-10-01 23:00:00 17.5 0 Calma 2 Norte 0 -- -- 95
2017-10-01 22:00:00 17.7 2 Sur 7 Sur 0 -- -- 94
2017-10-01 21:00:00 18 7 Sur 8 Sur 0 -- -- 92
2017-10-01 20:00:00 18.7 5 Sur 10 Sudoeste 0 -- -- 86
2017-10-01 19:00:00 20.3 6 Sudoeste 12 Sudoeste 0 -- -- 80
2017-10-01 18:00:00 20.9 8 Sudoeste 16 Sudoeste 0 -- -- 79
2017-10-01 17:00:00 21.2 12 Sudoeste 16 Sudoeste 0 -- -- 80
2017-10-01 16:00:00 21.1 12 Sudoeste 17 Sudoeste 0 -- -- 82
2017-10-01 15:00:00 20.7 12 Sudoeste 18 Sudoeste 0 -- -- 89
2017-10-01 14:00:00 19.5 10 Sudoeste 15 Sudoeste 0 -- -- 98
2017-10-01 13:00:00 18.4 8 Sudoeste 14 Sudoeste 0 -- -- 99
2017-10-01 12:00:00 18.5 10 Sudoeste 16 Sudoeste 0 -- -- 99
2017-10-01 11:00:00 18.2 10 Sudoeste 13 Sudoeste 0 -- -- 99
2017-10-01 10:00:00 17.4 8 Sur 12 Sudoeste 0 -- -- 99
2017-10-01 09:00:00 17 8 Sudoeste 12 Sudoeste 0 -- -- 99
2017-10-01 08:00:00 17.4 8 Sudoeste 10 Sudoeste 0 -- -- 99
2017-10-01 07:00:00 17.5 7 Sur 9 Sur 0 -- -- 99
2017-10-01 06:00:00 17.4 6 Sur 10 Sudoeste 0.1 -- -- 99
2017-10-01 05:00:00 17 8 Sudoeste 11 Sudoeste 0 -- -- 99
2017-10-01 04:00:00 17.1 8 Sur 13 Sudoeste 0 -- -- 99
2017-10-01 03:00:00 17 10 Sudoeste 16 Sudoeste 0.3 -- -- 99
2017-10-01 02:00:00 17 10 Sur 14 Sudoeste 0.1 -- -- 99
2017-10-01 01:00:00 17 11 Sur 13 Sur 0.1 -- -- 99
2017-10-01 00:00:00 16.9 10 Sur 14 Sur 0 -- -- 99
2017-09-30 23:00:00 16.9 3 Sur 16 Sudoeste 0.5 -- -- 98
2017-09-30 22:00:00 16.4 15 Sur 26 Sur 0.2 -- -- 98
2017-09-30 21:00:00 16.3 14 Sur 20 Sur 0.3 -- -- 98
2017-09-30 20:00:00 16.2 14 Sur 22 Sudoeste 0.1 -- -- 96
2017-09-30 19:00:00 16.8 16 Sudoeste 24 Sudoeste 0 -- -- 92
2017-09-30 18:00:00 17.7 18 Sudoeste 25 Sudoeste 0 -- -- 79
2017-09-30 17:00:00 18.4 15 Sudoeste 22 Sudoeste 0 -- -- 72
2017-09-30 16:00:00 19.9 15 Sudoeste 21 Sur 0 -- -- 69
2017-09-30 15:00:00 19.3 15 Sudoeste 19 Sudoeste 0 -- -- 68
2017-09-30 14:00:00 19.3 11 Sudoeste 14 Sudoeste 0 -- -- 67
2017-09-30 13:00:00 19 9 Sudoeste 13 Sudoeste 0 -- -- 72
2017-09-30 12:00:00 18 6 Sudoeste 9 Sudoeste 0 -- -- 82
2017-09-30 11:00:00 16.8 4 Sudoeste 8 Sudoeste 0 -- -- 94
2017-09-30 10:00:00 15 5 Sur 8 Sur 0 -- -- 98
2017-09-30 09:00:00 13.8 7 Sudeste 12 Sudeste 0 -- -- 98
2017-09-30 08:00:00 13.9 4 Sudeste 8 Sudeste 0 -- -- 98
2017-09-30 07:00:00 13.8 3 Este 11 Sudeste 0 -- -- 98
2017-09-30 06:00:00 13.3 10 Sudeste 12 Sudeste 0 -- -- 98
2017-09-30 05:00:00 13.4 9 Sudeste 11 Sudeste 0 -- -- 98
2017-09-30 04:00:00 13.3 7 Sudeste 11 Sudeste 0 -- -- 98
2017-09-30 03:00:00 13.6 6 Este 10 Sudeste 0 -- -- 98
2017-09-30 02:00:00 13.7 7 Este 9 Nordeste 0 -- -- 98
2017-09-30 01:00:00 13.9 5 Nordeste 8 Este 0 -- -- 98
2017-09-30 00:00:00 13.7 7 Este 10 Este 0 -- -- 98
2017-09-29 23:00:00 13.8 5 Nordeste 8 Nordeste 0 -- -- 98
2017-09-29 22:00:00 13.8 5 Nordeste 15 Este 0 -- -- 98
2017-09-29 21:00:00 14.3 12 Este 17 Este 0 -- -- 99
2017-09-29 20:00:00 14.6 9 Este 21 Este 0 -- -- 99
2017-09-29 19:00:00 14.7 14 Este 19 Este 0 -- -- 99
2017-09-29 18:00:00 14.5 13 Este 17 Este 0 -- -- 99
2017-09-29 17:00:00 15.3 13 Este 26 Nordeste 0.1 -- -- 99
2017-09-29 16:00:00 14.3 20 Nordeste 32 Norte 0.9 -- -- 99
2017-09-29 15:00:00 13.7 27 Norte 33 Norte 0.4 -- -- 99
2017-09-29 14:00:00 14.4 27 Norte 32 Nordeste 0 -- -- 99
2017-09-29 13:00:00 15.3 20 Nordeste 30 Nordeste 0 -- -- 99
2017-09-29 12:00:00 15.3 21 Nordeste 31 Norte 0.5 -- -- 99
2017-09-29 11:00:00 16.3 3 Nordeste 22 Norte 0.1 -- -- 99
2017-09-29 10:00:00 16.1 15 Sur 23 Sur 0.1 -- -- 99
2017-09-29 09:00:00 15.7 14 Sudeste 24 Sudeste 0 -- -- 99
2017-09-29 08:00:00 15.3 17 Sur 27 Sur 0 -- -- 99
2017-09-29 07:00:00 15.8 20 Sur 24 Sur 0 -- -- 99
2017-09-29 06:00:00 16.4 18 Sur 24 Sur 0 -- -- 99
2017-09-29 05:00:00 16.6 20 Sur 33 Sudoeste 0 -- -- 99
2017-09-29 04:00:00 17.1 23 Sur 31 Sur 0 -- -- 99
2017-09-29 03:00:00 17.3 21 Sur 32 Sur 0.6 -- -- 99
2017-09-29 02:00:00 17.3 26 Sur 37 Sur 0 -- -- 99
2017-09-29 01:00:00 16.9 28 Sur 39 Sur 0.3 -- -- 99
2017-09-29 00:00:00 16.8 25 Sur 39 Sur 0.6 -- -- 99
2017-09-28 23:00:00 16.9 28 Sur 41 Sur 0 -- -- 99
2017-09-28 22:00:00 17.1 29 Sur 41 Sur 0 -- -- 98
2017-09-28 21:00:00 17.2 27 Sur 37 Sur 0 -- -- 96
2017-09-28 20:00:00 18.1 25 Sur 39 Sudoeste 0 -- -- 90
2017-09-28 19:00:00 19.2 29 Sudoeste 39 Sudoeste 0 -- -- 82
2017-09-28 18:00:00 21.3 32 Sur 43 Sur 0 -- -- 73
2017-09-28 17:00:00 21.9 32 Sur 48 Sudoeste 0 -- -- 73
2017-09-28 16:00:00 21.6 35 Sur 46 Sur 0 -- -- 75
2017-09-28 15:00:00 21.6 28 Sur 46 Sudoeste 0 -- -- 77
2017-09-28 14:00:00 21 32 Sur 47 Sur 0 -- -- 84
2017-09-28 13:00:00 19.4 30 Sur 47 Sur 0 -- -- 92
2017-09-28 12:00:00 18.3 34 Sur 47 Sur 0 -- -- 98
2017-09-28 11:00:00 17.5 27 Sur 44 Sur 0 -- -- 99
2017-09-28 10:00:00 17.3 28 Sur 41 Sur 0 -- -- 99
2017-09-28 09:00:00 17.2 30 Sur 42 Sur 0 -- -- 99
2017-09-28 08:00:00 17.3 29 Sur 40 Sur 0 -- -- 99
2017-09-28 07:00:00 17.4 24 Sur 38 Sur 0 -- -- 99
2017-09-28 06:00:00 17.2 27 Sur 38 Sur 0 -- -- 99
2017-09-28 05:00:00 17.3 26 Sur 33 Sur 0 -- -- 99
2017-09-28 04:00:00 17.4 23 Sur 30 Sur 0 -- -- 99
2017-09-28 03:00:00 17.5 20 Sur 28 Sur 0 -- -- 99
2017-09-28 02:00:00 17.3 21 Sur 30 Sur 0 -- -- 99
2017-09-28 01:00:00 17.4 23 Sur 30 Sur 0 -- -- 99
2017-09-28 00:00:00 17.2 20 Sur 26 Sur 0 -- -- 98
2017-09-27 23:00:00 17.4 20 Sur 28 Sur 0 -- -- 98
2017-09-27 22:00:00 17.5 21 Sur 27 Sur 0 -- -- 97
2017-09-27 21:00:00 17.5 16 Sur 27 Sur 0 -- -- 97
2017-09-27 20:00:00 18.1 22 Sur 32 Sur 0 -- -- 94
2017-09-27 19:00:00 19 24 Sur 32 Sur 0 -- -- 91
2017-09-27 18:00:00 19.7 23 Sur 32 Sur 0 -- -- 86
2017-09-27 17:00:00 19.9 27 Sur 37 Sur 0 -- -- 82
2017-09-27 16:00:00 21.6 27 Sur 42 Sur 0 -- -- 70
2017-09-27 15:00:00 21.2 25 Sur 40 Sur 0 -- -- 76
2017-09-27 14:00:00 20.3 29 Sur 40 Sur 0 -- -- 89
2017-09-27 13:00:00 18.6 26 Sur 40 Sur 0 -- -- 98
2017-09-27 12:00:00 17.9 26 Sur 40 Sur 0 -- -- 98
2017-09-27 11:00:00 17.7 28 Sur 41 Sur 0 -- -- 99
2017-09-27 10:00:00 17.7 28 Sur 37 Sur 0 -- -- 99
2017-09-27 09:00:00 17.6 24 Sur 34 Sur 0 -- -- 98
2017-09-27 08:00:00 17.3 27 Sur 36 Sur 0 -- -- 98
2017-09-27 07:00:00 17.4 26 Sur 38 Sur 0 -- -- 98
2017-09-27 06:00:00 17.2 27 Sur 38 Sur 0 -- -- 97
2017-09-27 05:00:00 17.3 28 Sur 37 Sur 0 -- -- 94
2017-09-27 04:00:00 17.4 25 Sur 35 Sur 0 -- -- 90
2017-09-27 03:00:00 17.3 25 Sur 32 Sur 0 -- -- 79
2017-09-27 02:00:00 17 23 Sur 35 Sur 0 -- -- 70
2017-09-27 01:00:00 17.7 21 Sur 28 Sur 0 -- -- 67
2017-09-27 00:00:00 17.4 20 Sur 27 Sur 0 -- -- 59
2017-09-26 23:00:00 16.6 18 Sur 27 Sur 0 -- -- 54
2017-09-26 22:00:00 16.7 22 Sur 27 Sur 0 -- -- 51
2017-09-26 21:00:00 16.6 19 Sur 24 Sur 0 -- -- 55
2017-09-26 20:00:00 16.9 16 Sur 30 Sudoeste 0 -- -- 62
2017-09-26 19:00:00 17.1 21 Sudoeste 30 Sudoeste 0 -- -- 79
2017-09-26 18:00:00 19.2 16 Sur 28 Sudoeste 0 -- -- 74
2017-09-26 17:00:00 19 17 Sudoeste 28 Sudoeste 0 -- -- 68
2017-09-26 16:00:00 18.9 16 Sudoeste 29 Sudoeste 0 -- -- 85
2017-09-26 15:00:00 17.3 22 Sudoeste 31 Sudoeste 0 -- -- 92
2017-09-26 14:00:00 16 18 Sudoeste 27 Sudoeste 0 -- -- 92
2017-09-26 13:00:00 17.3 11 Sudoeste 18 Sudoeste 0 -- -- 87
2017-09-26 12:00:00 17.6 9 Sudoeste 12 Sudoeste 0 -- -- 88
2017-09-26 11:00:00 16.5 3 Sur 8 Sur 0 -- -- 98
2017-09-26 10:00:00 14.5 5 Sur 13 Sudeste 0 -- -- 99
2017-09-26 09:00:00 12.7 11 Sudeste 14 Sudeste 0 -- -- 99
2017-09-26 08:00:00 12.8 8 Sur 13 Sur 0 -- -- 99
2017-09-26 07:00:00 12.5 9 Sur 14 Sudeste 0 -- -- 99
2017-09-26 06:00:00 12.3 11 Sudeste 13 Sudeste 0.1 -- -- 99
2017-09-26 05:00:00 12.7 9 Sudeste 14 Sudeste 0 -- -- 99
2017-09-26 04:00:00 12.8 9 Sudeste 11 Sudeste 0 -- -- 99
2017-09-26 03:00:00 13.4 5 Sudeste 10 Sudeste 0 -- -- 99
2017-09-26 02:00:00 14.1 4 Sudeste 10 Este 0 -- -- 99
2017-09-26 01:00:00 13.7 2 Nordeste 8 Sudeste 0.1 -- -- 99
2017-09-26 00:00:00 14.7 4 Este 10 Nordeste 0 -- -- 99
2017-09-25 23:00:00 14.9 8 Nordeste 10 Nordeste 0 -- -- 99
2017-09-25 22:00:00 14.4 2 Este 8 Sudoeste 0 -- -- 99
2017-09-25 21:00:00 14.9 6 Sudoeste 12 Sudoeste 0 -- -- 99
2017-09-25 20:00:00 15.4 10 Sudoeste 14 Sudoeste 0 -- -- 98
2017-09-25 19:00:00 15.9 11 Sudoeste 15 Sudoeste 0 -- -- 96
2017-09-25 18:00:00 16.6 11 Sudoeste 18 Sudoeste 0 -- -- 92
2017-09-25 17:00:00 17.5 13 Sudoeste 23 Sudoeste 0 -- -- 89
2017-09-25 16:00:00 18.2 18 Sudoeste 22 Sudoeste 0 -- -- 85
2017-09-25 15:00:00 20.3 15 Sudoeste 19 Sudoeste 0 -- -- 79
2017-09-25 14:00:00 20.2 13 Sudoeste 17 Sudoeste 0 -- -- 75
2017-09-25 13:00:00 19.5 13 Sudoeste 17 Sudoeste 0 -- -- 86
2017-09-25 12:00:00 18.7 11 Sur 15 Sur 0 -- -- 96
2017-09-25 11:00:00 17.2 10 Sur 16 Sur 0 -- -- 99
2017-09-25 10:00:00 15.3 13 Sur 17 Sur 0 -- -- 99
2017-09-25 09:00:00 15.2 13 Sur 16 Sur 0 -- -- 99
2017-09-25 08:00:00 14.8 12 Sur 15 Sur 0 -- -- 99
2017-09-25 07:00:00 14.8 10 Sur 14 Sudeste 0 -- -- 99
2017-09-25 06:00:00 15.2 10 Sur 16 Sur 0 -- -- 99
2017-09-25 05:00:00 15.5 11 Sur 14 Sur 0 -- -- 99
2017-09-25 04:00:00 15.7 10 Sur 14 Sudoeste 0.1 -- -- 99
2017-09-25 03:00:00 15.9 12 Sudoeste 21 Sudoeste 0 -- -- 99
2017-09-25 02:00:00 15.8 17 Sudoeste 27 Sudoeste 0 -- -- 99
2017-09-25 01:00:00 16.5 19 Sur 25 Sur 0 -- -- 99
2017-09-25 00:00:00 16 18 Sur 26 Sur 0 -- -- 99
2017-09-24 23:00:00 16.4 21 Sudoeste 32 Sudoeste 0 -- -- 99
2017-09-24 22:00:00 16.7 26 Sudoeste 34 Sudoeste 0 -- -- 99
2017-09-24 21:00:00 16.1 24 Sur 30 Sur 1.3 -- -- 99
2017-09-24 20:00:00 16.2 23 Sur 30 Sur 0 -- -- 97
2017-09-24 19:00:00 17.1 23 Sur 29 Sur 0 -- -- 96
2017-09-24 18:00:00 17.1 19 Sur 29 Sur 0 -- -- 98
2017-09-24 17:00:00 16.5 21 Sur 31 Sur 0 -- -- 98
2017-09-24 16:00:00 16.1 23 Sur 34 Sur 0 -- -- 98
2017-09-24 15:00:00 15.7 24 Sur 43 Sur 0 -- -- 98
2017-09-24 14:00:00 15.8 31 Sur 44 Sur 0 -- -- 98
2017-09-24 13:00:00 16.1 33 Sur 51 Sur 0 -- -- 98
2017-09-24 12:00:00 15.7 36 Sur 49 Sur 0.2 -- -- 98
2017-09-24 11:00:00 16 26 Sur 42 Sur 0.3 -- -- 97
2017-09-24 10:00:00 15.6 27 Sur 42 Sur 0.1 -- -- 96
2017-09-24 09:00:00 16.6 27 Sur 38 Sur 0 -- -- 85
2017-09-24 08:00:00 16.4 27 Sur 42 Sur 0 -- -- 84
2017-09-24 07:00:00 -- 26 Sur 40 Sur 0 -- -- --
2017-09-24 06:00:00 16.2 28 Sur 42 Sur 0 -- -- 90
2017-09-24 05:00:00 16 30 Sur 72 Sur 0 -- -- 92
2017-09-24 04:00:00 15.6 31 Sur 41 Sur 0 -- -- 92
2017-09-24 03:00:00 15.4 25 Sur 38 Sur 0 -- -- 92
2017-09-24 02:00:00 15.5 27 Sur 40 Sur 0 -- -- 90
2017-09-24 01:00:00 15.6 21 Sur 35 Sur 0 -- -- 90
2017-09-24 00:00:00 15.6 23 Sur 32 Sur 0 -- -- 90
2017-09-23 23:00:00 16 21 Sur 34 Sur 0 -- -- 89
2017-09-23 22:00:00 15.7 26 Sur 36 Sur 0 -- -- 89
2017-09-23 21:00:00 16 25 Sur 37 Sur 0 -- -- 86
2017-09-23 20:00:00 17.4 24 Sur 37 Sur 0 -- -- 76
2017-09-23 19:00:00 19.3 27 Sur 38 Sur 0 -- -- 70
2017-09-23 18:00:00 18.2 28 Sur 40 Sudoeste 0 -- -- 73
2017-09-23 17:00:00 19.9 28 Sur 41 Sudoeste 0 -- -- 70
2017-09-23 16:00:00 19.3 26 Sur 40 Sudoeste 0 -- -- 67
2017-09-23 15:00:00 19.6 30 Sudoeste 40 Sudoeste 0 -- -- 67
2017-09-23 14:00:00 20.2 24 Sudoeste 31 Sur 0 -- -- 67
2017-09-23 13:00:00 18.1 19 Sudoeste 28 Sur 0 -- -- 79
2017-09-23 12:00:00 19 20 Sudoeste 28 Sudoeste 0 -- -- 84
2017-09-23 11:00:00 16.7 21 Sudoeste 28 Sudoeste 0 -- -- 97
2017-09-23 10:00:00 15.7 17 Sur 24 Sur 0 -- -- 97
2017-09-23 09:00:00 14.8 18 Sur 26 Sur 0 -- -- 97
2017-09-23 08:00:00 14.6 17 Sur 24 Sur 0 -- -- 97
2017-09-23 07:00:00 13.5 16 Sur 23 Sur 0 -- -- 97
2017-09-23 06:00:00 13.5 15 Sur 19 Sur 0 -- -- 95
2017-09-23 05:00:00 14.6 10 Sur 14 Sur 0 -- -- 94
2017-09-23 04:00:00 14.1 4 Sudeste 12 Sudeste 0 -- -- 95
2017-09-23 03:00:00 14.1 9 Este 13 Este 0 -- -- 95
2017-09-23 02:00:00 14.4 7 Este 9 Nordeste 0 -- -- 95
2017-09-23 01:00:00 14.5 8 Este 13 Este 0 -- -- 95
2017-09-23 00:00:00 15.2 8 Nordeste 24 Nordeste 0 -- -- 92